sensor_id;sensor_type;location;lat;lon;timestamp;pressure;altitude;pressure_sealevel;temperature;humidity
71165;BME280;58859;55.132;-1.586;2023-07-02T00:02:15;100012.16;;;19.03;100.00
71165;BME280;58859;55.132;-1.586;2023-07-02T00:04:42;100012.22;;;18.96;100.00
71165;BME280;58859;55.132;-1.586;2023-07-02T00:07:08;100009.31;;;19.59;100.00
71165;BME280;58859;55.132;-1.586;2023-07-02T00:09:33;100021.94;;;19.57;100.00
71165;BME280;58859;55.132;-1.586;2023-07-02T00:11:59;100022.72;;;20.17;100.00
71165;BME280;58859;55.132;-1.586;2023-07-02T00:14:24;100023.75;;;20.57;100.00
71165;BME280;58859;55.132;-1.586;2023-07-02T00:16:49;100023.94;;;20.02;100.00
71165;BME280;58859;55.132;-1.586;2023-07-02T00:19:15;100021.59;;;20.24;100.00
71165;BME280;58859;55.132;-1.586;2023-07-02T00:21:41;100020.41;;;19.79;100.00
71165;BME280;58859;55.132;-1.586;2023-07-02T00:24:08;100023.06;;;20.96;100.00
71165;BME280;58859;55.132;-1.586;2023-07-02T00:26:37;100020.22;;;19.80;100.00
71165;BME280;58859;55.132;-1.586;2023-07-02T00:29:06;100006.53;;;20.66;100.00
71165;BME280;58859;55.132;-1.586;2023-07-02T00:31:33;100010.66;;;20.85;100.00
71165;BME280;58859;55.132;-1.586;2023-07-02T00:33:58;100012.09;;;19.93;100.00
71165;BME280;58859;55.132;-1.586;2023-07-02T00:36:26;100005.13;;;20.75;100.00
71165;BME280;58859;55.132;-1.586;2023-07-02T00:38:51;99997.75;;;20.01;100.00
71165;BME280;58859;55.132;-1.586;2023-07-02T00:41:17;100010.53;;;20.45;100.00
71165;BME280;58859;55.132;-1.586;2023-07-02T00:43:43;100009.16;;;20.78;100.00
71165;BME280;58859;55.132;-1.586;2023-07-02T00:46:16;99996.66;;;19.31;100.00
71165;BME280;58859;55.132;-1.586;2023-07-02T00:48:49;99997.63;;;19.55;100.00
71165;BME280;58859;55.132;-1.586;2023-07-02T00:51:17;99996.56;;;19.19;100.00
71165;BME280;58859;55.132;-1.586;2023-07-02T00:53:47;99989.16;;;19.64;100.00
71165;BME280;58859;55.132;-1.586;2023-07-02T00:56:14;99999.50;;;19.11;100.00
71165;BME280;58859;55.132;-1.586;2023-07-02T00:58:41;99990.56;;;18.51;100.00
71165;BME280;58859;55.132;-1.586;2023-07-02T01:01:15;99996.00;;;17.62;100.00
71165;BME280;58859;55.132;-1.586;2023-07-02T01:04:02;100008.84;;;17.84;100.00
71165;BME280;58859;55.132;-1.586;2023-07-02T01:06:32;100013.38;;;18.08;100.00
71165;BME280;58859;55.132;-1.586;2023-07-02T01:09:02;100005.22;;;19.08;100.00
71165;BME280;58859;55.132;-1.586;2023-07-02T01:11:31;100021.41;;;17.17;100.00
71165;BME280;58859;55.132;-1.586;2023-07-02T01:14:04;100013.38;;;18.08;100.00
71165;BME280;58859;55.132;-1.586;2023-07-02T01:16:30;100009.16;;;18.56;100.00
71165;BME280;58859;55.132;-1.586;2023-07-02T01:18:58;100013.25;;;17.90;100.00
71165;BME280;58859;55.132;-1.586;2023-07-02T01:21:27;100021.97;;;18.21;100.00
71165;BME280;58859;55.132;-1.586;2023-07-02T01:23:53;100018.13;;;17.86;100.00
71165;BME280;58859;55.132;-1.586;2023-07-02T01:26:19;100018.97;;;18.49;100.00
71165;BME280;58859;55.132;-1.586;2023-07-02T01:28:44;100012.31;;;18.40;100.00
71165;BME280;58859;55.132;-1.586;2023-07-02T01:31:10;100018.53;;;17.90;100.00
71165;BME280;58859;55.132;-1.586;2023-07-02T01:33:35;100017.28;;;17.99;100.00
71165;BME280;58859;55.132;-1.586;2023-07-02T01:36:00;100008.16;;;18.57;100.00
71165;BME280;58859;55.132;-1.586;2023-07-02T01:38:26;100010.41;;;17.91;100.00
71165;BME280;58859;55.132;-1.586;2023-07-02T01:40:52;100015.63;;;17.66;100.00
71165;BME280;58859;55.132;-1.586;2023-07-02T01:43:17;100009.91;;;18.38;100.00
71165;BME280;58859;55.132;-1.586;2023-07-02T01:45:43;100021.41;;;17.31;100.00
71165;BME280;58859;55.132;-1.586;2023-07-02T01:48:08;100027.69;;;17.74;100.00
71165;BME280;58859;55.132;-1.586;2023-07-02T01:50:33;100024.66;;;17.19;100.00
71165;BME280;58859;55.132;-1.586;2023-07-02T01:52:59;100016.66;;;17.52;100.00
71165;BME280;58859;55.132;-1.586;2023-07-02T01:55:24;100020.88;;;16.96;100.00
71165;BME280;58859;55.132;-1.586;2023-07-02T01:57:50;100000.47;;;16.91;100.00
71165;BME280;58859;55.132;-1.586;2023-07-02T02:00:15;100006.63;;;18.43;100.00
71165;BME280;58859;55.132;-1.586;2023-07-02T02:02:42;100007.56;;;17.61;100.00
71165;BME280;58859;55.132;-1.586;2023-07-02T02:05:08;100013.53;;;17.17;100.00
71165;BME280;58859;55.132;-1.586;2023-07-02T02:07:35;100012.38;;;17.64;100.00
71165;BME280;58859;55.132;-1.586;2023-07-02T02:10:01;100010.84;;;17.37;100.00
71165;BME280;58859;55.132;-1.586;2023-07-02T02:12:27;100007.69;;;17.22;100.00
71165;BME280;58859;55.132;-1.586;2023-07-02T02:14:54;100008.19;;;16.73;100.00
71165;BME280;58859;55.132;-1.586;2023-07-02T02:17:19;100006.09;;;17.01;100.00
71165;BME280;58859;55.132;-1.586;2023-07-02T02:19:44;100005.88;;;18.36;100.00
71165;BME280;58859;55.132;-1.586;2023-07-02T02:22:10;100007.25;;;18.70;100.00
71165;BME280;58859;55.132;-1.586;2023-07-02T02:24:35;100016.59;;;18.66;100.00
71165;BME280;58859;55.132;-1.586;2023-07-02T02:27:01;100022.41;;;18.18;100.00
71165;BME280;58859;55.132;-1.586;2023-07-02T02:29:26;100031.09;;;17.88;100.00
71165;BME280;58859;55.132;-1.586;2023-07-02T02:31:51;100037.88;;;18.64;100.00
71165;BME280;58859;55.132;-1.586;2023-07-02T02:34:17;100037.56;;;18.97;100.00
71165;BME280;58859;55.132;-1.586;2023-07-02T02:36:42;100041.47;;;19.31;100.00
71165;BME280;58859;55.132;-1.586;2023-07-02T02:39:08;100025.34;;;18.28;100.00
71165;BME280;58859;55.132;-1.586;2023-07-02T02:41:33;100037.75;;;19.38;100.00
71165;BME280;58859;55.132;-1.586;2023-07-02T02:43:58;100017.66;;;19.19;100.00
71165;BME280;58859;55.132;-1.586;2023-07-02T02:46:24;100019.88;;;19.59;100.00
71165;BME280;58859;55.132;-1.586;2023-07-02T02:48:50;100021.03;;;19.08;100.00
71165;BME280;58859;55.132;-1.586;2023-07-02T02:51:15;100023.53;;;19.03;100.00
71165;BME280;58859;55.132;-1.586;2023-07-02T02:53:41;100027.28;;;19.32;100.00
71165;BME280;58859;55.132;-1.586;2023-07-02T02:56:06;100032.53;;;17.77;100.00
71165;BME280;58859;55.132;-1.586;2023-07-02T02:58:31;100031.09;;;18.93;100.00
71165;BME280;58859;55.132;-1.586;2023-07-02T03:00:57;100039.75;;;17.37;100.00
71165;BME280;58859;55.132;-1.586;2023-07-02T03:03:22;100034.59;;;18.13;100.00
71165;BME280;58859;55.132;-1.586;2023-07-02T03:05:49;100033.16;;;18.73;100.00
71165;BME280;58859;55.132;-1.586;2023-07-02T03:08:15;100035.63;;;18.05;100.00
71165;BME280;58859;55.132;-1.586;2023-07-02T03:10:41;100025.03;;;18.43;100.00
71165;BME280;58859;55.132;-1.586;2023-07-02T03:13:07;100024.00;;;18.51;100.00
71165;BME280;58859;55.132;-1.586;2023-07-02T03:15:32;100015.63;;;17.66;100.00
71165;BME280;58859;55.132;-1.586;2023-07-02T03:17:58;100030.19;;;18.00;100.00
71165;BME280;58859;55.132;-1.586;2023-07-02T03:20:23;100027.06;;;18.16;100.00
71165;BME280;58859;55.132;-1.586;2023-07-02T03:22:49;100014.69;;;18.48;100.00
71165;BME280;58859;55.132;-1.586;2023-07-02T03:25:14;100020.84;;;18.67;100.00
71165;BME280;58859;55.132;-1.586;2023-07-02T03:27:40;100027.75;;;18.86;100.00
71165;BME280;58859;55.132;-1.586;2023-07-02T03:30:06;100036.31;;;17.43;100.00
71165;BME280;58859;55.132;-1.586;2023-07-02T03:32:31;100035.59;;;17.74;100.00
71165;BME280;58859;55.132;-1.586;2023-07-02T03:34:57;100035.56;;;17.23;100.00
71165;BME280;58859;55.132;-1.586;2023-07-02T03:37:22;100039.16;;;18.24;100.00
71165;BME280;58859;55.132;-1.586;2023-07-02T03:39:47;100028.41;;;19.00;100.00
71165;BME280;58859;55.132;-1.586;2023-07-02T03:42:13;100027.16;;;18.84;100.00
71165;BME280;58859;55.132;-1.586;2023-07-02T03:44:38;100025.25;;;19.52;100.00
71165;BME280;58859;55.132;-1.586;2023-07-02T03:47:04;100026.31;;;18.09;100.00
71165;BME280;58859;55.132;-1.586;2023-07-02T03:49:30;100032.47;;;19.38;100.00
71165;BME280;58859;55.132;-1.586;2023-07-02T03:51:55;100029.06;;;17.90;100.00
71165;BME280;58859;55.132;-1.586;2023-07-02T03:54:21;100030.34;;;18.12;100.00
71165;BME280;58859;55.132;-1.586;2023-07-02T03:56:46;100033.78;;;18.68;100.00
71165;BME280;58859;55.132;-1.586;2023-07-02T03:59:11;100035.44;;;18.87;100.00
71165;BME280;58859;55.132;-1.586;2023-07-02T04:01:37;100032.72;;;18.51;100.00
71165;BME280;58859;55.132;-1.586;2023-07-02T04:04:02;100043.00;;;17.39;100.00
71165;BME280;58859;55.132;-1.586;2023-07-02T04:06:28;100028.94;;;19.08;100.00
71165;BME280;58859;55.132;-1.586;2023-07-02T04:08:53;100046.81;;;18.32;100.00
71165;BME280;58859;55.132;-1.586;2023-07-02T04:11:18;100051.56;;;18.17;100.00
71165;BME280;58859;55.132;-1.586;2023-07-02T04:13:44;100048.22;;;17.52;100.00
71165;BME280;58859;55.132;-1.586;2023-07-02T04:16:09;100052.22;;;18.37;100.00
71165;BME280;58859;55.132;-1.586;2023-07-02T04:18:35;100047.63;;;18.01;100.00
71165;BME280;58859;55.132;-1.586;2023-07-02T04:21:01;100028.34;;;17.05;100.00
71165;BME280;58859;55.132;-1.586;2023-07-02T04:23:26;100038.41;;;17.15;100.00
71165;BME280;58859;55.132;-1.586;2023-07-02T04:25:52;100034.78;;;17.03;100.00
71165;BME280;58859;55.132;-1.586;2023-07-02T04:28:17;100035.59;;;17.10;100.00
71165;BME280;58859;55.132;-1.586;2023-07-02T04:30:43;100034.91;;;17.41;100.00
71165;BME280;58859;55.132;-1.586;2023-07-02T04:33:09;100029.56;;;17.73;100.00
71165;BME280;58859;55.132;-1.586;2023-07-02T04:35:39;100034.66;;;17.49;100.00
71165;BME280;58859;55.132;-1.586;2023-07-02T04:38:05;100034.59;;;17.04;100.00
71165;BME280;58859;55.132;-1.586;2023-07-02T04:40:30;100034.25;;;17.58;100.00
71165;BME280;58859;55.132;-1.586;2023-07-02T04:42:55;100030.88;;;17.89;100.00
71165;BME280;58859;55.132;-1.586;2023-07-02T04:45:25;100026.50;;;17.76;100.00
71165;BME280;58859;55.132;-1.586;2023-07-02T04:47:51;100035.75;;;17.28;100.00
71165;BME280;58859;55.132;-1.586;2023-07-02T04:50:17;100024.97;;;17.43;100.00
71165;BME280;58859;55.132;-1.586;2023-07-02T04:52:43;100028.25;;;17.38;100.00
71165;BME280;58859;55.132;-1.586;2023-07-02T04:55:09;100027.25;;;17.39;100.00
71165;BME280;58859;55.132;-1.586;2023-07-02T04:57:35;100023.53;;;16.70;100.00
71165;BME280;58859;55.132;-1.586;2023-07-02T05:00:00;100028.81;;;17.98;100.00
71165;BME280;58859;55.132;-1.586;2023-07-02T05:02:26;100025.47;;;18.15;100.00
71165;BME280;58859;55.132;-1.586;2023-07-02T05:04:51;100029.00;;;17.58;100.00
71165;BME280;58859;55.132;-1.586;2023-07-02T05:07:16;100026.84;;;17.29;100.00
71165;BME280;58859;55.132;-1.586;2023-07-02T05:09:42;100018.94;;;17.36;100.00
71165;BME280;58859;55.132;-1.586;2023-07-02T05:12:08;100029.41;;;17.55;100.00
71165;BME280;58859;55.132;-1.586;2023-07-02T05:14:33;100018.72;;;17.37;100.00
71165;BME280;58859;55.132;-1.586;2023-07-02T05:16:59;100028.59;;;18.30;100.00
71165;BME280;58859;55.132;-1.586;2023-07-02T05:19:24;100032.28;;;17.85;100.00
71165;BME280;58859;55.132;-1.586;2023-07-02T05:21:49;100038.81;;;17.25;100.00
71165;BME280;58859;55.132;-1.586;2023-07-02T05:24:15;100030.75;;;18.09;100.00
71165;BME280;58859;55.132;-1.586;2023-07-02T05:26:40;100024.25;;;18.11;100.00
71165;BME280;58859;55.132;-1.586;2023-07-02T05:29:05;100034.44;;;18.32;100.00
71165;BME280;58859;55.132;-1.586;2023-07-02T05:31:31;100038.34;;;18.23;100.00
71165;BME280;58859;55.132;-1.586;2023-07-02T05:33:56;100041.25;;;18.71;100.00
71165;BME280;58859;55.132;-1.586;2023-07-02T05:36:22;100044.53;;;17.66;100.00
71165;BME280;58859;55.132;-1.586;2023-07-02T05:38:47;100032.34;;;18.72;100.00
71165;BME280;58859;55.132;-1.586;2023-07-02T05:41:22;100051.19;;;17.69;100.00
71165;BME280;58859;55.132;-1.586;2023-07-02T05:43:48;100058.22;;;18.51;100.00
71165;BME280;58859;55.132;-1.586;2023-07-02T05:46:14;100055.97;;;17.85;100.00
71165;BME280;58859;55.132;-1.586;2023-07-02T05:48:41;100054.47;;;18.65;100.00
71165;BME280;58859;55.132;-1.586;2023-07-02T05:51:07;100054.81;;;18.19;100.00
71165;BME280;58859;55.132;-1.586;2023-07-02T05:53:33;100044.56;;;17.53;100.00
71165;BME280;58859;55.132;-1.586;2023-07-02T05:55:58;100053.63;;;18.71;100.00
71165;BME280;58859;55.132;-1.586;2023-07-02T05:58:23;100052.63;;;19.51;100.00
71165;BME280;58859;55.132;-1.586;2023-07-02T06:00:49;100060.34;;;18.35;100.00
71165;BME280;58859;55.132;-1.586;2023-07-02T06:03:20;100057.19;;;19.44;100.00
71165;BME280;58859;55.132;-1.586;2023-07-02T06:05:49;100042.16;;;19.92;100.00
71165;BME280;58859;55.132;-1.586;2023-07-02T06:08:15;100041.97;;;19.76;100.00
71165;BME280;58859;55.132;-1.586;2023-07-02T06:10:42;100044.59;;;19.46;100.00
71165;BME280;58859;55.132;-1.586;2023-07-02T06:13:07;100051.75;;;18.96;100.00
71165;BME280;58859;55.132;-1.586;2023-07-02T06:15:33;100048.13;;;18.97;100.00
71165;BME280;58859;55.132;-1.586;2023-07-02T06:17:58;100038.75;;;19.44;100.00
71165;BME280;58859;55.132;-1.586;2023-07-02T06:20:23;100041.72;;;19.47;100.00
71165;BME280;58859;55.132;-1.586;2023-07-02T06:22:49;100051.25;;;19.48;100.00
71165;BME280;58859;55.132;-1.586;2023-07-02T06:25:14;100052.19;;;19.72;100.00
71165;BME280;58859;55.132;-1.586;2023-07-02T06:27:39;100054.03;;;19.35;100.00
71165;BME280;58859;55.132;-1.586;2023-07-02T06:30:05;100046.41;;;20.23;100.00
71165;BME280;58859;55.132;-1.586;2023-07-02T06:32:31;100047.06;;;20.19;100.00
71165;BME280;58859;55.132;-1.586;2023-07-02T06:34:57;100037.69;;;19.93;100.00
71165;BME280;58859;55.132;-1.586;2023-07-02T06:37:22;100028.22;;;19.19;100.00
71165;BME280;58859;55.132;-1.586;2023-07-02T06:39:48;100028.25;;;19.85;100.00
71165;BME280;58859;55.132;-1.586;2023-07-02T06:42:13;100022.47;;;20.06;100.00
71165;BME280;58859;55.132;-1.586;2023-07-02T06:44:40;100015.63;;;19.03;100.00
71165;BME280;58859;55.132;-1.586;2023-07-02T06:47:06;100015.13;;;20.08;100.00
71165;BME280;58859;55.132;-1.586;2023-07-02T06:49:31;100012.69;;;20.37;100.00
71165;BME280;58859;55.132;-1.586;2023-07-02T06:51:57;100006.38;;;20.26;100.00
71165;BME280;58859;55.132;-1.586;2023-07-02T06:54:22;100000.78;;;20.16;100.00
71165;BME280;58859;55.132;-1.586;2023-07-02T06:56:48;100008.56;;;20.52;100.00
71165;BME280;58859;55.132;-1.586;2023-07-02T06:59:18;100022.22;;;19.96;100.00
71165;BME280;58859;55.132;-1.586;2023-07-02T07:01:44;100010.66;;;20.50;100.00
71165;BME280;58859;55.132;-1.586;2023-07-02T07:04:10;100005.00;;;19.94;100.00
71165;BME280;58859;55.132;-1.586;2023-07-02T07:06:35;100010.75;;;20.55;100.00
71165;BME280;58859;55.132;-1.586;2023-07-02T07:09:02;100022.22;;;20.38;100.00
71165;BME280;58859;55.132;-1.586;2023-07-02T07:11:28;100015.59;;;20.82;100.00
71165;BME280;58859;55.132;-1.586;2023-07-02T07:13:53;100020.78;;;21.11;100.00
71165;BME280;58859;55.132;-1.586;2023-07-02T07:16:19;100017.88;;;21.01;100.00
71165;BME280;58859;55.132;-1.586;2023-07-02T07:18:44;100023.16;;;20.32;100.00
71165;BME280;58859;55.132;-1.586;2023-07-02T07:21:10;100016.59;;;21.04;100.00
71165;BME280;58859;55.132;-1.586;2023-07-02T07:23:35;100027.09;;;21.10;100.00
71165;BME280;58859;55.132;-1.586;2023-07-02T07:26:01;100019.28;;;20.57;100.00
71165;BME280;58859;55.132;-1.586;2023-07-02T07:28:26;100022.59;;;20.88;100.00
71165;BME280;58859;55.132;-1.586;2023-07-02T07:30:51;100022.34;;;20.31;100.00
71165;BME280;58859;55.132;-1.586;2023-07-02T07:33:17;100028.84;;;21.85;100.00
71165;BME280;58859;55.132;-1.586;2023-07-02T07:35:42;100024.38;;;21.57;100.00
71165;BME280;58859;55.132;-1.586;2023-07-02T07:38:08;100020.84;;;22.08;100.00
71165;BME280;58859;55.132;-1.586;2023-07-02T07:40:33;100033.78;;;21.93;100.00
71165;BME280;58859;55.132;-1.586;2023-07-02T07:42:58;100035.44;;;22.10;100.00
71165;BME280;58859;55.132;-1.586;2023-07-02T07:45:24;100053.50;;;22.13;100.00
71165;BME280;58859;55.132;-1.586;2023-07-02T07:47:49;100050.94;;;21.50;100.00
71165;BME280;58859;55.132;-1.586;2023-07-02T07:50:15;100044.00;;;21.09;100.00
71165;BME280;58859;55.132;-1.586;2023-07-02T07:52:41;100043.94;;;22.12;100.00
71165;BME280;58859;55.132;-1.586;2023-07-02T07:55:07;100061.97;;;22.27;100.00
71165;BME280;58859;55.132;-1.586;2023-07-02T07:57:36;100058.75;;;22.58;100.00
71165;BME280;58859;55.132;-1.586;2023-07-02T08:00:03;100056.69;;;21.99;100.00
71165;BME280;58859;55.132;-1.586;2023-07-02T08:02:37;100063.03;;;21.46;100.00
71165;BME280;58859;55.132;-1.586;2023-07-02T08:05:04;100071.00;;;22.14;100.00
71165;BME280;58859;55.132;-1.586;2023-07-02T08:07:32;100075.94;;;20.96;100.00
71165;BME280;58859;55.132;-1.586;2023-07-02T08:09:59;100069.97;;;21.36;100.00
71165;BME280;58859;55.132;-1.586;2023-07-02T08:12:25;100061.16;;;21.58;100.00
71165;BME280;58859;55.132;-1.586;2023-07-02T08:14:55;100055.88;;;21.98;100.00
71165;BME280;58859;55.132;-1.586;2023-07-02T08:17:20;100062.16;;;21.69;100.00
71165;BME280;58859;55.132;-1.586;2023-07-02T08:19:45;100067.47;;;22.70;100.00
71165;BME280;58859;55.132;-1.586;2023-07-02T08:22:12;100058.38;;;22.50;100.00
71165;BME280;58859;55.132;-1.586;2023-07-02T08:24:37;100061.19;;;22.93;100.00
71165;BME280;58859;55.132;-1.586;2023-07-02T08:27:03;100066.25;;;22.78;100.00
71165;BME280;58859;55.132;-1.586;2023-07-02T08:29:32;100058.91;;;23.02;100.00
71165;BME280;58859;55.132;-1.586;2023-07-02T08:31:57;100059.16;;;23.00;100.00
71165;BME280;58859;55.132;-1.586;2023-07-02T08:34:23;100059.81;;;23.07;100.00
71165;BME280;58859;55.132;-1.586;2023-07-02T08:36:49;100070.25;;;22.97;100.00
71165;BME280;58859;55.132;-1.586;2023-07-02T08:39:14;100076.97;;;23.05;100.00
71165;BME280;58859;55.132;-1.586;2023-07-02T08:41:47;100079.31;;;23.78;100.00
71165;BME280;58859;55.132;-1.586;2023-07-02T08:44:14;100069.38;;;24.17;100.00
71165;BME280;58859;55.132;-1.586;2023-07-02T08:46:41;100069.94;;;23.32;100.00
71165;BME280;58859;55.132;-1.586;2023-07-02T08:49:07;100082.47;;;22.98;100.00
71165;BME280;58859;55.132;-1.586;2023-07-02T08:51:32;100067.94;;;23.22;100.00
71165;BME280;58859;55.132;-1.586;2023-07-02T08:53:58;100064.97;;;23.79;100.00
71165;BME280;58859;55.132;-1.586;2023-07-02T08:56:23;100068.13;;;24.02;100.00
71165;BME280;58859;55.132;-1.586;2023-07-02T08:58:49;100065.16;;;24.84;100.00
71165;BME280;58859;55.132;-1.586;2023-07-02T09:01:14;100065.28;;;23.82;100.00
71165;BME280;58859;55.132;-1.586;2023-07-02T09:03:41;100074.59;;;23.85;100.00
71165;BME280;58859;55.132;-1.586;2023-07-02T09:06:10;100064.09;;;24.48;100.00
71165;BME280;58859;55.132;-1.586;2023-07-02T09:08:36;100062.25;;;24.54;100.00
71165;BME280;58859;55.132;-1.586;2023-07-02T09:11:19;100060.47;;;23.58;100.00
71165;BME280;58859;55.132;-1.586;2023-07-02T09:19:06;100053.69;;;22.57;100.00
71165;BME280;58859;55.132;-1.586;2023-07-02T09:21:46;100058.97;;;23.45;100.00
71165;BME280;58859;55.132;-1.586;2023-07-02T09:24:16;100051.41;;;23.15;100.00
71165;BME280;58859;55.132;-1.586;2023-07-02T09:26:53;100059.53;;;22.70;100.00
71165;BME280;58859;55.132;-1.586;2023-07-02T09:31:49;100062.56;;;22.17;100.00
71165;BME280;58859;55.132;-1.586;2023-07-02T09:34:15;100067.03;;;23.12;100.00
71165;BME280;58859;55.132;-1.586;2023-07-02T09:36:41;100072.28;;;23.28;100.00
71165;BME280;58859;55.132;-1.586;2023-07-02T09:39:33;100067.69;;;23.40;100.00
71165;BME280;58859;55.132;-1.586;2023-07-02T09:42:00;100076.59;;;23.99;100.00
71165;BME280;58859;55.132;-1.586;2023-07-02T09:47:00;100075.69;;;24.37;100.00
71165;BME280;58859;55.132;-1.586;2023-07-02T09:49:27;100074.44;;;24.18;100.00
71165;BME280;58859;55.132;-1.586;2023-07-02T09:51:56;100076.84;;;24.20;100.00
71165;BME280;58859;55.132;-1.586;2023-07-02T09:54:23;100083.53;;;24.00;100.00
71165;BME280;58859;55.132;-1.586;2023-07-02T09:56:48;100075.13;;;23.38;100.00
71165;BME280;58859;55.132;-1.586;2023-07-02T09:59:14;100079.91;;;22.86;100.00
71165;BME280;58859;55.132;-1.586;2023-07-02T10:01:40;100068.53;;;23.24;100.00
71165;BME280;58859;55.132;-1.586;2023-07-02T10:04:14;100063.25;;;23.46;100.00
71165;BME280;58859;55.132;-1.586;2023-07-02T10:06:47;100063.91;;;23.80;100.00
71165;BME280;58859;55.132;-1.586;2023-07-02T10:09:13;100069.72;;;23.77;100.00
71165;BME280;58859;55.132;-1.586;2023-07-02T10:11:38;100058.56;;;22.31;100.00
71165;BME280;58859;55.132;-1.586;2023-07-02T10:14:04;100069.94;;;22.60;100.00
71165;BME280;58859;55.132;-1.586;2023-07-02T10:16:29;100076.03;;;22.44;100.00
71165;BME280;58859;55.132;-1.586;2023-07-02T10:19:08;100083.41;;;20.76;100.00
71165;BME280;58859;55.132;-1.586;2023-07-02T10:21:34;100080.31;;;21.89;100.00
71165;BME280;58859;55.132;-1.586;2023-07-02T10:24:09;100079.19;;;21.73;100.00
71165;BME280;58859;55.132;-1.586;2023-07-02T10:26:35;100079.78;;;21.63;100.00
71165;BME280;58859;55.132;-1.586;2023-07-02T10:29:00;100064.28;;;22.23;100.00
71165;BME280;58859;55.132;-1.586;2023-07-02T10:31:26;100068.38;;;23.74;100.00
71165;BME280;58859;55.132;-1.586;2023-07-02T10:33:52;100054.69;;;23.61;100.00
71165;BME280;58859;55.132;-1.586;2023-07-02T10:36:18;100069.22;;;23.80;100.00
71165;BME280;58859;55.132;-1.586;2023-07-02T10:38:44;100059.78;;;24.16;100.00
71165;BME280;58859;55.132;-1.586;2023-07-02T10:41:10;100060.63;;;23.94;100.00
71165;BME280;58859;55.132;-1.586;2023-07-02T10:43:35;100053.13;;;24.77;100.00
71165;BME280;58859;55.132;-1.586;2023-07-02T10:46:01;100034.28;;;23.66;100.00
71165;BME280;58859;55.132;-1.586;2023-07-02T10:48:27;100042.31;;;24.51;100.00
71165;BME280;58859;55.132;-1.586;2023-07-02T10:50:53;100047.50;;;24.36;100.00
71165;BME280;58859;55.132;-1.586;2023-07-02T10:53:19;100046.16;;;25.07;100.00
71165;BME280;58859;55.132;-1.586;2023-07-02T10:55:45;100044.09;;;25.20;100.00
71165;BME280;58859;55.132;-1.586;2023-07-02T10:58:11;100034.22;;;24.73;100.00
71165;BME280;58859;55.132;-1.586;2023-07-02T11:00:48;100035.63;;;24.49;100.00
71165;BME280;58859;55.132;-1.586;2023-07-02T11:05:47;100036.38;;;25.23;100.00
71165;BME280;58859;55.132;-1.586;2023-07-02T11:08:13;100040.56;;;24.09;100.00
71165;BME280;58859;55.132;-1.586;2023-07-02T11:10:38;100056.66;;;24.82;100.00
71165;BME280;58859;55.132;-1.586;2023-07-02T11:13:14;100040.53;;;24.99;100.00
71165;BME280;58859;55.132;-1.586;2023-07-02T11:15:41;100044.16;;;24.51;100.00
71165;BME280;58859;55.132;-1.586;2023-07-02T11:18:12;100037.34;;;24.65;100.00
71165;BME280;58859;55.132;-1.586;2023-07-02T11:20:39;100034.41;;;24.67;100.00
71165;BME280;58859;55.132;-1.586;2023-07-02T11:23:05;100025.38;;;25.04;100.00
71165;BME280;58859;55.132;-1.586;2023-07-02T11:25:31;100030.09;;;25.44;100.00
71165;BME280;58859;55.132;-1.586;2023-07-02T11:28:05;100028.22;;;25.45;100.00
71165;BME280;58859;55.132;-1.586;2023-07-02T11:30:31;100031.75;;;24.30;100.00
71165;BME280;58859;55.132;-1.586;2023-07-02T11:32:56;100042.56;;;23.70;100.00
71165;BME280;58859;55.132;-1.586;2023-07-02T11:35:33;100030.38;;;24.91;100.00
71165;BME280;58859;55.132;-1.586;2023-07-02T11:37:59;100033.81;;;25.43;100.00
71165;BME280;58859;55.132;-1.586;2023-07-02T11:40:25;100024.50;;;24.52;100.00
71165;BME280;58859;55.132;-1.586;2023-07-02T11:42:50;100026.41;;;24.62;100.00
71165;BME280;58859;55.132;-1.586;2023-07-02T11:45:15;100028.19;;;24.19;100.00
71165;BME280;58859;55.132;-1.586;2023-07-02T11:47:41;100020.56;;;24.01;100.00
71165;BME280;58859;55.132;-1.586;2023-07-02T11:50:07;100014.84;;;23.61;100.00
71165;BME280;58859;55.132;-1.586;2023-07-02T11:52:32;100020.22;;;24.51;100.00
71165;BME280;58859;55.132;-1.586;2023-07-02T11:54:58;100025.88;;;23.74;100.00
71165;BME280;58859;55.132;-1.586;2023-07-02T11:57:23;100039.56;;;24.41;100.00
71165;BME280;58859;55.132;-1.586;2023-07-02T11:59:49;100018.53;;;25.24;100.00
71165;BME280;58859;55.132;-1.586;2023-07-02T12:02:15;100031.78;;;23.81;100.00
71165;BME280;58859;55.132;-1.586;2023-07-02T12:04:40;100030.97;;;24.29;100.00
71165;BME280;58859;55.132;-1.586;2023-07-02T12:07:05;100021.16;;;25.13;100.00
71165;BME280;58859;55.132;-1.586;2023-07-02T12:09:31;100016.91;;;25.17;100.00
71165;BME280;58859;55.132;-1.586;2023-07-02T12:11:56;100031.44;;;24.58;100.00
71165;BME280;58859;55.132;-1.586;2023-07-02T12:14:22;100053.09;;;24.40;100.00
71165;BME280;58859;55.132;-1.586;2023-07-02T12:16:47;100079.50;;;23.50;100.00
71165;BME280;58859;55.132;-1.586;2023-07-02T12:19:12;100065.94;;;23.73;100.00
71165;BME280;58859;55.132;-1.586;2023-07-02T12:21:38;100052.47;;;23.79;100.00
71165;BME280;58859;55.132;-1.586;2023-07-02T12:24:03;100055.50;;;24.41;100.00
71165;BME280;58859;55.132;-1.586;2023-07-02T12:26:34;100051.28;;;24.45;100.00
71165;BME280;58859;55.132;-1.586;2023-07-02T12:28:59;100053.31;;;24.07;100.00
71165;BME280;58859;55.132;-1.586;2023-07-02T12:31:25;100047.63;;;24.83;100.00
71165;BME280;58859;55.132;-1.586;2023-07-02T12:33:50;100043.59;;;25.28;100.00
71165;BME280;58859;55.132;-1.586;2023-07-02T12:36:16;100042.19;;;25.15;100.00
71165;BME280;58859;55.132;-1.586;2023-07-02T12:38:41;100043.47;;;24.66;100.00
71165;BME280;58859;55.132;-1.586;2023-07-02T12:41:06;100043.13;;;23.98;100.00